Time;durP1;ratioP1;P1;durP2;ratioP2;P2;SDS_P1;SDS_P2;PMS_P1;PMS_P2;Temp;Humidity;BMP_temperature;BMP_pressure;BME280_temperature;BME280_humidity;BME280_pressure;Samples;Min_cycle;Max_cycle;Signal;HPM_P1;HPM_P2
2022/02/24 00:02:24;;;;;;;16.60;4.25;;;7.30;99.90;;;;;;5048758;28;20548;-66
2022/02/24 00:04:49;;;;;;;11.90;2.47;;;7.30;99.90;;;;;;5051086;28;20056;-64
2022/02/24 00:07:16;;;;;;;15.45;2.60;;;7.30;99.90;;;;;;5048600;28;20383;-65
2022/02/24 00:09:42;;;;;;;10.82;2.50;;;7.30;99.90;;;;;;5033060;28;20095;-64
2022/02/24 00:12:08;;;;;;;10.27;2.05;;;7.30;99.90;;;;;;5046809;28;20084;-60
2022/02/24 00:14:34;;;;;;;15.05;3.00;;;7.30;99.90;;;;;;5066238;28;20060;-64
2022/02/24 00:17:00;;;;;;;9.80;2.17;;;7.30;99.90;;;;;;5032993;28;20051;-62
2022/02/24 00:19:26;;;;;;;9.65;2.38;;;7.30;99.90;;;;;;5065309;28;20040;-60
2022/02/24 00:21:52;;;;;;;11.93;2.40;;;7.30;99.90;;;;;;5049709;28;20037;-67
2022/02/24 00:24:17;;;;;;;4.97;1.60;;;7.30;99.90;;;;;;5047467;28;20048;-64
2022/02/24 00:26:43;;;;;;;17.77;2.17;;;7.30;99.90;;;;;;5050290;28;20049;-66
2022/02/24 00:29:09;;;;;;;12.65;2.03;;;7.30;99.90;;;;;;5031419;28;20407;-59
2022/02/24 00:31:35;;;;;;;13.85;2.53;;;7.30;99.90;;;;;;5048701;28;20143;-64
2022/02/24 00:34:02;;;;;;;11.45;2.42;;;7.30;99.90;;;;;;5037671;28;20079;-64
2022/02/24 00:36:27;;;;;;;12.43;2.33;;;7.30;99.90;;;;;;5033094;28;20076;-70
2022/02/24 00:38:53;;;;;;;3.03;1.23;;;7.20;99.90;;;;;;5047807;28;20091;-60
2022/02/24 00:41:19;;;;;;;14.60;2.75;;;7.20;99.90;;;;;;5028618;28;20602;-68
2022/02/24 00:43:45;;;;;;;11.18;1.77;;;7.30;99.90;;;;;;5049920;28;20516;-65
2022/02/24 00:46:11;;;;;;;7.65;1.75;;;7.30;99.90;;;;;;5049129;28;20391;-61
2022/02/24 00:48:37;;;;;;;10.95;2.17;;;7.30;99.90;;;;;;5033449;28;20049;-62
2022/02/24 00:51:03;;;;;;;11.27;2.10;;;7.30;99.90;;;;;;5032821;28;20080;-59
2022/02/24 00:53:29;;;;;;;8.73;2.00;;;7.30;99.90;;;;;;5066477;28;20652;-68
2022/02/24 00:55:55;;;;;;;14.25;2.42;;;7.30;99.90;;;;;;5049622;28;20040;-69
2022/02/24 00:58:23;;;;;;;10.85;1.98;;;7.30;99.90;;;;;;5031865;28;20049;-65
2022/02/24 01:00:49;;;;;;;11.20;2.55;;;7.30;99.90;;;;;;5033012;28;20508;-66
2022/02/24 01:03:15;;;;;;;5.75;1.23;;;7.30;99.90;;;;;;5044202;28;20044;-70
2022/02/24 01:05:40;;;;;;;8.30;1.83;;;7.30;99.90;;;;;;5028100;28;20410;-63
2022/02/24 01:08:06;;;;;;;8.32;1.88;;;7.30;99.90;;;;;;5032238;28;20048;-67
2022/02/24 01:10:32;;;;;;;6.88;2.53;;;7.30;99.90;;;;;;5016157;28;20048;-61
2022/02/24 01:12:58;;;;;;;7.75;2.45;;;7.30;99.90;;;;;;5032359;28;20052;-61
2022/02/24 01:15:24;;;;;;;9.35;1.70;;;7.30;99.90;;;;;;5051548;28;20054;-67
2022/02/24 01:17:50;;;;;;;17.83;3.47;;;7.30;99.90;;;;;;5035776;28;20057;-63
2022/02/24 01:20:16;;;;;;;9.80;1.95;;;7.30;99.90;;;;;;5048518;28;20049;-61
2022/02/24 01:22:41;;;;;;;13.75;2.17;;;7.30;99.90;;;;;;5032913;28;20355;-62
2022/02/24 01:25:07;;;;;;;5.95;1.67;;;7.30;99.90;;;;;;5032670;28;20162;-69
2022/02/24 01:27:33;;;;;;;9.88;2.13;;;7.30;99.90;;;;;;5054743;28;20102;-61
2022/02/24 01:29:59;;;;;;;6.90;1.75;;;7.40;99.90;;;;;;5028788;28;20135;-69
2022/02/24 01:32:26;;;;;;;6.63;1.70;;;7.30;99.90;;;;;;5045158;28;20065;-65
2022/02/24 01:34:58;;;;;;;9.02;1.58;;;7.30;99.90;;;;;;5044027;28;20135;-61
2022/02/24 01:37:25;;;;;;;11.80;2.15;;;7.30;99.90;;;;;;5058028;28;20047;-63
2022/02/24 01:39:51;;;;;;;10.63;2.22;;;7.30;99.90;;;;;;5046171;28;20889;-63
2022/02/24 01:42:17;;;;;;;14.18;1.98;;;7.30;99.90;;;;;;5027438;28;20522;-64
2022/02/24 01:44:45;;;;;;;19.50;4.50;;;7.30;99.90;;;;;;5045957;28;20049;-66
2022/02/24 01:47:11;;;;;;;13.25;2.50;;;7.30;99.90;;;;;;5045484;28;20151;-67
2022/02/24 01:49:38;;;;;;;14.65;2.95;;;7.30;99.90;;;;;;5045107;28;20149;-62
2022/02/24 01:52:06;;;;;;;7.10;1.88;;;7.30;99.90;;;;;;5043776;28;20041;-66
2022/02/24 01:54:33;;;;;;;14.90;2.83;;;7.30;99.90;;;;;;5047452;28;20056;-63
2022/02/24 01:56:59;;;;;;;10.52;2.17;;;7.30;99.90;;;;;;5048106;28;20045;-71
2022/02/24 01:59:25;;;;;;;15.73;2.80;;;7.30;99.90;;;;;;5027563;28;20051;-65
2022/02/24 02:01:51;;;;;;;14.35;2.17;;;7.30;99.90;;;;;;5058638;28;20048;-65
2022/02/24 02:04:17;;;;;;;12.63;2.10;;;7.30;99.90;;;;;;5044211;28;20457;-66
2022/02/24 02:06:43;;;;;;;6.97;1.45;;;7.30;99.90;;;;;;5020547;28;20056;-68
2022/02/24 02:09:10;;;;;;;17.48;3.15;;;7.30;99.90;;;;;;5023711;28;20136;-64
2022/02/24 02:11:36;;;;;;;8.45;2.00;;;7.20;99.90;;;;;;5047776;28;20358;-62
2022/02/24 02:14:03;;;;;;;9.77;2.20;;;7.20;99.90;;;;;;5045184;28;20088;-59
2022/02/24 02:16:29;;;;;;;13.38;1.73;;;7.20;99.90;;;;;;5049750;28;20500;-64
2022/02/24 02:18:55;;;;;;;9.82;2.08;;;7.20;99.90;;;;;;5029858;28;20131;-62
2022/02/24 02:21:21;;;;;;;14.18;2.25;;;7.20;99.90;;;;;;5042269;28;20520;-68
2022/02/24 02:23:47;;;;;;;11.80;1.63;;;7.20;99.90;;;;;;5018771;28;20079;-67
2022/02/24 02:26:12;;;;;;;20.80;2.90;;;7.10;99.90;;;;;;5043011;28;20048;-59
2022/02/24 02:28:38;;;;;;;11.35;1.98;;;7.20;99.90;;;;;;5033890;28;20050;-61
2022/02/24 02:31:05;;;;;;;10.18;2.25;;;7.20;99.90;;;;;;5052359;28;20084;-62
2022/02/24 02:33:31;;;;;;;14.90;2.35;;;7.10;99.90;;;;;;5043696;28;20045;-71
2022/02/24 02:35:57;;;;;;;15.45;2.83;;;7.20;99.90;;;;;;5038246;28;20110;-61
2022/02/24 02:38:23;;;;;;;10.55;1.60;;;7.20;99.90;;;;;;5062593;28;20476;-71
2022/02/24 02:40:49;;;;;;;10.07;1.88;;;7.10;99.90;;;;;;5045304;28;20037;-66
2022/02/24 02:43:15;;;;;;;2.83;0.80;;;7.10;99.90;;;;;;5042981;28;20045;-68
2022/02/24 02:45:40;;;;;;;8.55;1.50;;;7.10;99.90;;;;;;5064527;28;20055;-64
2022/02/24 02:48:06;;;;;;;7.93;2.10;;;7.10;99.90;;;;;;5028800;28;20053;-71
2022/02/24 02:50:33;;;;;;;10.38;1.80;;;7.10;99.90;;;;;;5043553;28;20080;-60
2022/02/24 02:53:06;;;;;;;14.35;2.28;;;7.10;99.90;;;;;;5037303;28;20124;-63
2022/02/24 02:55:32;;;;;;;18.13;2.10;;;7.10;99.90;;;;;;5043073;28;20487;-64
2022/02/24 02:57:58;;;;;;;19.48;3.00;;;7.10;99.90;;;;;;5044660;28;20430;-61
2022/02/24 03:00:24;;;;;;;6.13;1.65;;;7.10;99.90;;;;;;5042829;28;20037;-64
2022/02/24 03:02:50;;;;;;;11.15;2.35;;;7.00;99.90;;;;;;5024635;28;20057;-64
2022/02/24 03:05:15;;;;;;;11.75;2.15;;;7.00;99.90;;;;;;5043639;28;20140;-68
2022/02/24 03:07:42;;;;;;;9.45;1.83;;;7.00;99.90;;;;;;5030983;28;20488;-62
2022/02/24 03:10:08;;;;;;;8.13;1.13;;;7.00;99.90;;;;;;5045955;28;20044;-65
2022/02/24 03:12:35;;;;;;;9.18;1.80;;;7.00;99.90;;;;;;5049084;28;20041;-61
2022/02/24 03:15:08;;;;;;;3.85;1.00;;;7.00;99.90;;;;;;5048317;28;20053;-65
2022/02/24 03:17:36;;;;;;;16.60;2.90;;;7.00;99.90;;;;;;5046513;28;20076;-64
2022/02/24 03:20:02;;;;;;;15.82;4.13;;;7.00;99.90;;;;;;5051959;28;20056;-60
2022/02/24 03:22:28;;;;;;;11.65;1.67;;;6.90;99.90;;;;;;5033313;28;20049;-62
2022/02/24 03:24:54;;;;;;;7.88;0.98;;;6.90;99.90;;;;;;5050421;28;20037;-60
2022/02/24 03:27:20;;;;;;;10.50;1.42;;;6.90;99.90;;;;;;5051405;28;20171;-71
2022/02/24 03:29:45;;;;;;;7.57;1.88;;;6.90;99.90;;;;;;5050469;28;20074;-66
2022/02/24 03:32:11;;;;;;;5.38;0.88;;;6.80;99.90;;;;;;5070282;28;20508;-67
2022/02/24 03:34:38;;;;;;;12.85;1.55;;;6.80;99.90;;;;;;5033968;28;20461;-65
2022/02/24 03:37:04;;;;;;;2.72;0.60;;;6.70;99.90;;;;;;5051627;28;20053;-64
2022/02/24 03:39:29;;;;;;;9.20;2.17;;;6.70;99.90;;;;;;5050025;28;20053;-64
2022/02/24 03:41:55;;;;;;;10.48;1.73;;;6.70;99.90;;;;;;5036675;28;20040;-69
2022/02/24 03:44:21;;;;;;;13.50;2.13;;;6.60;99.90;;;;;;5047769;28;20079;-64
2022/02/24 03:46:48;;;;;;;6.00;1.42;;;6.60;99.90;;;;;;5066283;28;20056;-68
2022/02/24 03:49:13;;;;;;;13.63;2.42;;;6.50;99.90;;;;;;5035067;28;20607;-62
2022/02/24 03:51:39;;;;;;;9.55;1.88;;;6.50;99.90;;;;;;5049381;28;20135;-66
2022/02/24 03:54:05;;;;;;;19.73;2.58;;;6.40;99.90;;;;;;5017779;28;20057;-60
2022/02/24 03:56:31;;;;;;;9.27;1.88;;;6.50;99.90;;;;;;5033432;28;20095;-71
2022/02/24 03:58:57;;;;;;;12.52;2.03;;;6.50;99.90;;;;;;5051021;28;20084;-64
2022/02/24 04:01:22;;;;;;;12.55;2.33;;;6.40;99.90;;;;;;5030757;28;20752;-64
2022/02/24 04:03:48;;;;;;;13.13;2.05;;;6.40;99.90;;;;;;5043749;28;20083;-64
2022/02/24 04:06:14;;;;;;;12.40;2.55;;;6.40;99.90;;;;;;5034366;28;20653;-60
2022/02/24 04:08:40;;;;;;;6.57;1.75;;;6.50;99.90;;;;;;5033164;28;20033;-62
2022/02/24 04:11:06;;;;;;;18.73;2.33;;;6.50;99.90;;;;;;5031140;28;20041;-66
2022/02/24 04:13:31;;;;;;;8.57;1.83;;;6.50;99.90;;;;;;5041333;28;20083;-64
2022/02/24 04:15:58;;;;;;;10.98;2.55;;;6.50;99.90;;;;;;5052964;28;20098;-61
2022/02/24 04:18:24;;;;;;;6.63;1.33;;;6.60;99.90;;;;;;5017400;28;20093;-62
2022/02/24 04:20:50;;;;;;;13.82;2.33;;;6.50;99.90;;;;;;5030570;28;20125;-64
2022/02/24 04:23:16;;;;;;;12.82;1.67;;;6.60;99.90;;;;;;5032749;28;20372;-62
2022/02/24 04:25:42;;;;;;;5.60;1.45;;;6.50;99.90;;;;;;5044442;28;20502;-65
2022/02/24 04:28:08;;;;;;;9.32;1.58;;;6.50;99.90;;;;;;5045308;28;20033;-61
2022/02/24 04:30:33;;;;;;;17.08;2.63;;;6.50;99.90;;;;;;5019478;28;20045;-62
2022/02/24 04:32:59;;;;;;;14.02;2.00;;;6.50;99.90;;;;;;5046752;28;20053;-69
2022/02/24 04:35:25;;;;;;;9.45;1.83;;;6.50;99.90;;;;;;5046270;28;20049;-63
2022/02/24 04:37:51;;;;;;;13.77;2.30;;;6.40;99.90;;;;;;5024158;28;20380;-70
2022/02/24 04:40:17;;;;;;;14.90;1.65;;;6.40;99.90;;;;;;5030050;28;20187;-67
2022/02/24 04:42:43;;;;;;;3.80;0.82;;;6.40;99.90;;;;;;5041967;28;20593;-62
2022/02/24 04:45:10;;;;;;;17.73;2.63;;;6.40;99.90;;;;;;5046541;28;20545;-60
2022/02/24 04:47:36;;;;;;;12.20;2.22;;;6.40;99.90;;;;;;5055986;28;20090;-67
2022/02/24 04:50:05;;;;;;;11.38;2.67;;;6.30;99.90;;;;;;5048815;28;20498;-65
2022/02/24 04:52:33;;;;;;;9.75;1.83;;;6.30;99.90;;;;;;5046278;28;20561;-67
2022/02/24 04:54:59;;;;;;;17.20;2.38;;;6.30;99.90;;;;;;5042980;28;20503;-65
2022/02/24 04:57:26;;;;;;;13.40;1.35;;;6.30;99.90;;;;;;5066036;28;20048;-67
2022/02/24 04:59:52;;;;;;;14.75;2.40;;;6.30;99.90;;;;;;5040211;28;20052;-60
2022/02/24 05:02:17;;;;;;;9.02;1.63;;;6.30;99.90;;;;;;5029125;28;20544;-62
2022/02/24 05:04:43;;;;;;;14.10;3.33;;;6.30;99.90;;;;;;5045311;28;20063;-71
2022/02/24 05:07:09;;;;;;;4.18;0.95;;;6.30;99.90;;;;;;5049740;28;20117;-61
2022/02/24 05:09:35;;;;;;;14.48;2.08;;;6.30;99.90;;;;;;5028441;28;20202;-70
2022/02/24 05:12:01;;;;;;;13.18;2.63;;;6.20;99.90;;;;;;5038197;28;20045;-61
2022/02/24 05:14:27;;;;;;;23.02;2.00;;;6.20;99.90;;;;;;5026092;28;20061;-67
2022/02/24 05:16:53;;;;;;;6.45;1.65;;;6.30;99.90;;;;;;5038587;28;20044;-64
2022/02/24 05:19:18;;;;;;;14.77;2.17;;;6.30;99.90;;;;;;5047302;28;20072;-64
2022/02/24 05:21:44;;;;;;;14.48;2.63;;;6.40;99.90;;;;;;5048512;28;20554;-63
2022/02/24 05:24:10;;;;;;;10.77;1.77;;;6.40;99.90;;;;;;5029724;28;20045;-64
2022/02/24 05:26:37;;;;;;;14.82;2.03;;;6.40;99.90;;;;;;5064232;28;20151;-63
2022/02/24 05:29:03;;;;;;;11.40;2.17;;;6.50;99.90;;;;;;5045677;28;20561;-69
2022/02/24 05:31:29;;;;;;;15.38;2.08;;;6.40;99.90;;;;;;5026129;28;20037;-64
2022/02/24 05:33:55;;;;;;;10.73;2.00;;;6.50;99.90;;;;;;5035553;28;20114;-59
2022/02/24 05:36:20;;;;;;;11.82;2.00;;;6.40;99.90;;;;;;5025865;28;20044;-67
2022/02/24 05:38:46;;;;;;;14.35;1.70;;;6.40;99.90;;;;;;5048692;28;20140;-66
2022/02/24 05:41:12;;;;;;;15.13;2.00;;;6.40;99.90;;;;;;5029419;28;20509;-61
2022/02/24 05:43:38;;;;;;;14.50;1.55;;;6.40;99.90;;;;;;5066198;28;20403;-64
2022/02/24 05:46:03;;;;;;;4.20;1.20;;;6.40;99.90;;;;;;5049028;28;20478;-67
2022/02/24 05:48:29;;;;;;;10.23;2.95;;;6.30;99.90;;;;;;5047736;28;20131;-60
2022/02/24 05:50:55;;;;;;;7.80;1.60;;;6.30;99.90;;;;;;5045589;28;20514;-66
2022/02/24 05:53:21;;;;;;;14.70;2.83;;;6.40;99.90;;;;;;5061665;28;20045;-64
2022/02/24 05:55:46;;;;;;;16.00;1.88;;;6.40;99.90;;;;;;5045245;28;20071;-63
2022/02/24 05:58:12;;;;;;;4.68;1.13;;;6.40;99.90;;;;;;5024368;28;20045;-61
2022/02/24 06:00:38;;;;;;;17.95;2.00;;;6.50;99.90;;;;;;5066663;28;20036;-66
2022/02/24 06:03:04;;;;;;;3.63;0.98;;;6.50;99.90;;;;;;5065119;28;20049;-62
2022/02/24 06:05:29;;;;;;;13.70;3.05;;;6.50;99.90;;;;;;5065950;28;20059;-61
2022/02/24 06:07:55;;;;;;;6.07;1.27;;;6.50;99.90;;;;;;5028632;28;20374;-67
2022/02/24 06:10:21;;;;;;;11.55;2.40;;;6.60;99.90;;;;;;5060590;28;20082;-61
2022/02/24 06:12:47;;;;;;;9.55;2.00;;;6.60;99.90;;;;;;5028132;28;20057;-65
2022/02/24 06:15:13;;;;;;;5.95;1.42;;;6.60;99.90;;;;;;5034727;28;20057;-66
2022/02/24 06:17:39;;;;;;;13.10;2.00;;;6.60;99.90;;;;;;5062273;28;20052;-69
2022/02/24 06:20:06;;;;;;;16.42;2.20;;;6.60;99.90;;;;;;5047808;28;20079;-63
2022/02/24 06:22:33;;;;;;;15.57;3.33;;;6.60;99.90;;;;;;5031617;28;20372;-71
2022/02/24 06:24:59;;;;;;;6.32;1.45;;;6.60;99.90;;;;;;5052212;28;20777;-64
2022/02/24 06:27:24;;;;;;;10.05;2.35;;;6.70;99.90;;;;;;5044526;28;20059;-67
2022/02/24 06:29:50;;;;;;;7.43;1.75;;;6.70;99.90;;;;;;5045282;28;20044;-61
2022/02/24 06:32:16;;;;;;;8.65;2.67;;;6.70;99.90;;;;;;5065293;28;20483;-63
2022/02/24 06:34:43;;;;;;;8.27;1.73;;;6.70;99.90;;;;;;5066373;28;20047;-66
2022/02/24 06:37:10;;;;;;;6.40;1.73;;;6.70;99.90;;;;;;5028378;28;20067;-65
2022/02/24 06:39:36;;;;;;;17.67;2.55;;;6.80;99.90;;;;;;5025894;28;20379;-63
2022/02/24 06:42:02;;;;;;;14.23;2.20;;;6.80;99.90;;;;;;5065066;28;20044;-61
2022/02/24 06:44:28;;;;;;;8.50;2.50;;;6.80;99.90;;;;;;5027527;28;20493;-64
2022/02/24 06:46:53;;;;;;;12.95;2.50;;;6.80;99.90;;;;;;5064459;28;20059;-63
2022/02/24 06:49:19;;;;;;;9.80;2.55;;;6.80;99.90;;;;;;5043887;28;20487;-70
2022/02/24 06:51:45;;;;;;;8.25;1.58;;;6.80;99.90;;;;;;5062415;28;20105;-72
2022/02/24 06:54:11;;;;;;;9.52;1.75;;;6.90;99.90;;;;;;5065241;28;20500;-69
2022/02/24 06:56:37;;;;;;;8.93;1.92;;;6.90;99.90;;;;;;5065757;28;20131;-63
2022/02/24 06:59:03;;;;;;;7.32;1.85;;;6.90;99.90;;;;;;5014576;28;20044;-59
2022/02/24 07:01:30;;;;;;;13.60;2.40;;;6.90;99.90;;;;;;5065259;28;20043;-59
2022/02/24 07:03:59;;;;;;;11.55;2.38;;;6.90;99.90;;;;;;5066078;28;20044;-63
2022/02/24 07:06:24;;;;;;;10.45;1.55;;;6.90;99.90;;;;;;5044228;28;20041;-67
2022/02/24 07:08:51;;;;;;;14.75;2.50;;;6.90;99.90;;;;;;5044799;28;20509;-61
2022/02/24 07:11:21;;;;;;;10.75;2.97;;;6.90;99.90;;;;;;5064852;28;20043;-67
2022/02/24 07:13:48;;;;;;;13.32;2.60;;;6.90;99.90;;;;;;5027929;28;20052;-60
2022/02/24 07:16:14;;;;;;;7.72;2.15;;;6.80;99.90;;;;;;5063879;28;20045;-61
2022/02/24 07:18:39;;;;;;;20.58;2.95;;;6.80;99.90;;;;;;5044317;28;20277;-66
2022/02/24 07:21:07;;;;;;;13.20;1.88;;;6.80;99.90;;;;;;5061539;28;20049;-60
2022/02/24 07:23:33;;;;;;;18.13;2.85;;;6.80;99.90;;;;;;5063879;28;20418;-65
2022/02/24 07:26:00;;;;;;;4.38;1.67;;;6.80;99.90;;;;;;5047761;28;20067;-59
2022/02/24 07:28:25;;;;;;;10.15;1.95;;;6.80;99.90;;;;;;5047121;28;20475;-63
2022/02/24 07:30:51;;;;;;;4.65;1.23;;;6.70;99.90;;;;;;5027776;28;20072;-59
2022/02/24 07:33:17;;;;;;;15.27;2.40;;;6.70;99.90;;;;;;5046340;28;20056;-62
2022/02/24 07:35:43;;;;;;;14.30;3.00;;;6.80;99.90;;;;;;5001850;28;20080;-64
2022/02/24 07:38:09;;;;;;;13.07;2.47;;;6.80;99.90;;;;;;5042943;28;20049;-64
2022/02/24 07:40:34;;;;;;;8.35;2.55;;;6.80;99.90;;;;;;5065065;28;20478;-63
2022/02/24 07:43:00;;;;;;;17.35;2.33;;;6.90;99.90;;;;;;5028651;28;20136;-64
2022/02/24 07:45:26;;;;;;;11.93;3.10;;;6.90;99.90;;;;;;5033471;28;20045;-62
2022/02/24 07:47:52;;;;;;;10.27;2.60;;;6.90;99.90;;;;;;5046982;28;20084;-70
2022/02/24 07:50:18;;;;;;;13.68;2.15;;;7.00;99.90;;;;;;5026751;28;20048;-64
2022/02/24 07:52:45;;;;;;;10.32;1.95;;;7.00;99.90;;;;;;5038755;28;20053;-61
2022/02/24 07:55:13;;;;;;;12.98;2.50;;;7.00;99.90;;;;;;5030186;28;20041;-59
2022/02/24 07:57:40;;;;;;;15.73;2.25;;;7.10;99.90;;;;;;5034616;28;20044;-60
2022/02/24 08:00:07;;;;;;;18.80;3.15;;;7.20;99.90;;;;;;5048719;28;20045;-61
2022/02/24 08:02:33;;;;;;;7.00;1.95;;;7.30;99.90;;;;;;5052203;28;20124;-59
2022/02/24 08:05:00;;;;;;;17.08;3.65;;;7.40;99.90;;;;;;5067456;28;20092;-66
2022/02/24 08:07:26;;;;;;;7.65;1.50;;;7.40;99.90;;;;;;5050199;28;20040;-59
2022/02/24 08:09:51;;;;;;;11.35;2.80;;;7.40;99.90;;;;;;5067847;28;20566;-65
2022/02/24 08:15:02;;;;;;;17.33;2.85;;;7.50;99.90;;;;;;5034738;28;20053;-63
2022/02/24 08:17:27;;;;;;;15.00;2.72;;;7.50;99.90;;;;;;5041883;28;20491;-61
2022/02/24 08:19:53;;;;;;;3.47;1.25;;;7.60;99.90;;;;;;5030118;28;20056;-67
2022/02/24 08:22:20;;;;;;;9.63;1.85;;;7.60;99.90;;;;;;5039527;28;20048;-63
2022/02/24 08:24:46;;;;;;;17.50;3.38;;;7.70;99.90;;;;;;5047684;28;20056;-60
2022/02/24 08:27:14;;;;;;;13.25;3.13;;;7.70;99.90;;;;;;5049252;28;20385;-60
2022/02/24 08:29:40;;;;;;;13.00;2.10;;;7.80;99.90;;;;;;5031374;28;20045;-66
2022/02/24 08:32:06;;;;;;;8.40;1.75;;;7.80;99.90;;;;;;5046980;28;20041;-63
2022/02/24 08:34:32;;;;;;;15.52;3.05;;;7.80;99.90;;;;;;5065796;28;20053;-68
2022/02/24 08:36:57;;;;;;;12.18;3.10;;;7.80;99.90;;;;;;5047480;28;20064;-69
2022/02/24 08:39:23;;;;;;;11.98;1.73;;;7.60;99.90;;;;;;5066491;28;20585;-66
2022/02/24 08:41:49;;;;;;;12.48;3.08;;;7.50;99.90;;;;;;5047965;28;20076;-59
2022/02/24 08:44:15;;;;;;;13.95;3.97;;;7.50;99.90;;;;;;5056530;28;20049;-66
2022/02/24 08:46:42;;;;;;;17.27;3.53;;;7.40;99.90;;;;;;5029415;28;20102;-64
2022/02/24 08:49:08;;;;;;;13.07;2.60;;;7.50;99.90;;;;;;5047137;28;20801;-70
2022/02/24 08:51:33;;;;;;;10.13;2.55;;;7.50;99.90;;;;;;5027811;28;20107;-62
2022/02/24 08:54:00;;;;;;;15.25;2.55;;;7.60;99.90;;;;;;5046312;28;20130;-65
2022/02/24 08:56:27;;;;;;;8.73;2.20;;;7.70;99.90;;;;;;5049079;28;20049;-62
2022/02/24 08:58:53;;;;;;;12.73;2.55;;;7.70;99.90;;;;;;5047194;28;20052;-59
2022/02/24 09:01:19;;;;;;;13.48;2.75;;;7.90;99.90;;;;;;5048370;28;20045;-60
2022/02/24 09:03:45;;;;;;;7.28;2.20;;;8.00;99.90;;;;;;5047227;28;20498;-65
2022/02/24 09:06:11;;;;;;;11.85;2.40;;;8.10;99.90;;;;;;5048776;28;20048;-66
2022/02/24 09:08:40;;;;;;;9.03;2.50;;;8.30;99.90;;;;;;5066790;28;20056;-70
2022/02/24 09:11:06;;;;;;;9.15;1.70;;;8.40;99.90;;;;;;5065236;28;20314;-64
2022/02/24 09:13:31;;;;;;;10.27;2.40;;;8.40;99.90;;;;;;5049080;28;20573;-58
2022/02/24 09:15:57;;;;;;;12.50;3.80;;;8.30;99.90;;;;;;5048738;28;20115;-63
2022/02/24 09:18:23;;;;;;;17.20;2.80;;;8.30;99.90;;;;;;5065746;28;20059;-70
2022/02/24 09:20:49;;;;;;;11.68;2.63;;;8.20;99.90;;;;;;5045885;28;20424;-69
2022/02/24 09:23:15;;;;;;;14.75;3.22;;;8.20;99.90;;;;;;5046494;28;20132;-70
2022/02/24 09:25:40;;;;;;;13.77;3.00;;;8.10;99.90;;;;;;5066080;28;20140;-62
2022/02/24 09:28:07;;;;;;;13.10;2.50;;;8.20;99.90;;;;;;5047725;28;20040;-62
2022/02/24 09:30:32;;;;;;;19.50;2.58;;;8.20;99.90;;;;;;5065239;28;20056;-62
2022/02/24 09:32:58;;;;;;;17.60;2.33;;;8.30;99.90;;;;;;5047694;28;20703;-62
2022/02/24 09:35:24;;;;;;;14.98;2.83;;;8.40;99.90;;;;;;5047518;28;20074;-65
2022/02/24 09:37:50;;;;;;;12.23;2.47;;;8.50;99.90;;;;;;5030475;28;20053;-67
2022/02/24 09:40:16;;;;;;;5.82;1.85;;;8.60;99.90;;;;;;5047324;28;20048;-64
2022/02/24 09:42:42;;;;;;;11.15;2.72;;;8.70;99.90;;;;;;5046168;28;20059;-59
2022/02/24 09:45:09;;;;;;;6.85;1.52;;;8.80;99.90;;;;;;5048180;28;20422;-60
2022/02/24 09:47:39;;;;;;;4.97;1.35;;;8.90;99.90;;;;;;5047701;28;20097;-59
2022/02/24 09:50:06;;;;;;;9.25;2.05;;;9.00;99.90;;;;;;5030861;28;20048;-70
2022/02/24 09:52:31;;;;;;;7.72;2.17;;;8.90;99.90;;;;;;5048965;28;20044;-63
2022/02/24 09:54:57;;;;;;;9.35;2.08;;;9.00;99.90;;;;;;5047013;28;20546;-62
2022/02/24 09:57:23;;;;;;;5.25;1.10;;;9.20;99.90;;;;;;5015161;28;20521;-60
2022/02/24 09:59:50;;;;;;;5.95;1.90;;;9.30;99.90;;;;;;5030306;28;20086;-63
2022/02/24 10:02:16;;;;;;;10.07;2.38;;;9.30;99.90;;;;;;5031569;28;20045;-68
2022/02/24 10:05:09;;;;;;;6.90;1.50;;;9.30;99.90;;;;;;5044751;28;20091;-65
2022/02/24 10:07:36;;;;;;;14.02;3.22;;;9.30;99.90;;;;;;5055168;28;20570;-61
2022/02/24 10:10:22;;;;;;;8.80;2.75;;;9.30;99.90;;;;;;5045020;28;20064;-59
2022/02/24 10:13:12;;;;;;;8.90;2.55;;;9.40;99.90;;;;;;5042047;28;20128;-62
2022/02/24 10:15:40;;;;;;;4.60;1.80;;;9.40;99.90;;;;;;5065827;28;20056;-62
2022/02/24 10:18:16;;;;;;;9.73;2.00;;;9.40;99.90;;;;;;5063927;28;20040;-59
2022/02/24 10:20:48;;;;;;;9.80;2.58;;;9.30;99.90;;;;;;5042915;28;20060;-59
2022/02/24 10:23:16;;;;;;;4.68;1.90;;;9.20;99.90;;;;;;5064888;28;21821;-62
2022/02/24 10:25:50;;;;;;;11.65;1.83;;;9.10;99.90;;;;;;5064973;28;20498;-58
2022/02/24 10:28:35;;;;;;;2.45;0.93;;;9.10;99.90;;;;;;5065422;28;20044;-68
2022/02/24 10:31:16;;;;;;;17.38;3.00;;;9.10;99.90;;;;;;5028869;28;20048;-65
2022/02/24 10:33:46;;;;;;;16.27;3.10;;;9.10;99.90;;;;;;5062251;28;20051;-62
2022/02/24 10:36:15;;;;;;;7.93;2.10;;;9.20;99.90;;;;;;5065735;28;20091;-58
2022/02/24 10:38:57;;;;;;;7.25;1.83;;;9.30;99.90;;;;;;5064632;28;20060;-61
2022/02/24 10:41:38;;;;;;;16.00;2.42;;;9.30;99.90;;;;;;5051498;28;20029;-60
2022/02/24 10:44:25;;;;;;;11.25;2.67;;;9.20;99.90;;;;;;5035117;28;20270;-67
2022/02/24 10:46:52;;;;;;;11.02;2.25;;;9.20;99.90;;;;;;5063165;28;20044;-63
2022/02/24 10:49:35;;;;;;;12.38;2.47;;;9.20;99.90;;;;;;5063373;28;20609;-67
2022/02/24 10:52:18;;;;;;;12.13;2.47;;;9.30;99.90;;;;;;5025810;28;20060;-63
2022/02/24 10:54:55;;;;;;;6.85;1.73;;;9.40;99.90;;;;;;5062427;28;20414;-61
2022/02/24 10:57:24;;;;;;;13.07;2.85;;;9.50;99.90;;;;;;5062963;28;20045;-60
2022/02/24 10:59:51;;;;;;;13.02;2.85;;;9.50;99.90;;;;;;5046003;28;20489;-66
2022/02/24 11:02:18;;;;;;;8.52;2.05;;;9.60;99.90;;;;;;5064654;28;20060;-64
2022/02/24 11:04:47;;;;;;;15.02;1.58;;;9.70;99.90;;;;;;5064901;28;20045;-59
2022/02/24 11:07:13;;;;;;;5.38;1.58;;;9.80;99.90;;;;;;5038366;28;20060;-70
2022/02/24 11:09:42;;;;;;;3.60;1.55;;;9.80;99.90;;;;;;5045718;28;20178;-61
2022/02/24 11:12:10;;;;;;;4.28;2.15;;;9.80;99.90;;;;;;5064601;28;20131;-62
2022/02/24 11:14:39;;;;;;;7.00;1.65;;;9.70;99.90;;;;;;5042345;28;20147;-66
2022/02/24 11:17:09;;;;;;;5.80;1.85;;;9.60;99.90;;;;;;5045624;28;20048;-65
2022/02/24 11:19:40;;;;;;;11.27;2.10;;;9.50;99.90;;;;;;5065085;28;20045;-61
2022/02/24 11:22:07;;;;;;;10.82;2.70;;;9.50;99.90;;;;;;5061506;28;20494;-65
2022/02/24 11:24:34;;;;;;;7.85;1.80;;;9.60;99.90;;;;;;5044519;28;20044;-60
2022/02/24 11:27:09;;;;;;;9.25;1.98;;;9.80;99.90;;;;;;5066556;28;20385;-62
2022/02/24 11:30:02;;;;;;;10.73;2.10;;;9.80;99.90;;;;;;5047326;28;20514;-60
2022/02/24 11:32:30;;;;;;;6.90;2.00;;;9.80;99.90;;;;;;5051682;28;20497;-65
2022/02/24 11:35:14;;;;;;;9.93;1.77;;;9.90;99.90;;;;;;5057040;28;20037;-58
2022/02/24 11:37:43;;;;;;;8.00;1.10;;;10.10;99.90;;;;;;5049322;28;20036;-66
2022/02/24 11:40:28;;;;;;;4.20;1.05;;;10.20;99.90;;;;;;5064616;28;20123;-62
2022/02/24 11:43:12;;;;;;;6.93;1.90;;;10.20;99.90;;;;;;5060666;28;20045;-61
2022/02/24 11:45:51;;;;;;;3.47;1.20;;;10.20;99.90;;;;;;5064406;28;20048;-71
2022/02/24 11:48:22;;;;;;;1.10;0.60;;;10.20;99.90;;;;;;5045113;28;20068;-63
2022/02/24 11:51:08;;;;;;;3.28;1.13;;;10.10;99.90;;;;;;5049425;28;20102;-71
2022/02/24 11:53:42;;;;;;;6.60;1.33;;;10.10;99.90;;;;;;5031966;28;20145;-66
2022/02/24 11:56:15;;;;;;;6.53;1.42;;;10.20;99.90;;;;;;5046450;28;20041;-70
2022/02/24 11:58:50;;;;;;;9.57;2.22;;;10.20;99.90;;;;;;5032898;28;20053;-64
2022/02/24 12:01:38;;;;;;;4.47;0.98;;;10.40;99.90;;;;;;5045942;28;20639;-65
2022/02/24 12:04:21;;;;;;;4.05;1.15;;;10.30;99.90;;;;;;5049724;28;20041;-61
2022/02/24 12:06:57;;;;;;;6.28;1.30;;;10.30;99.90;;;;;;5033560;28;20498;-60
2022/02/24 12:09:32;;;;;;;7.20;1.38;;;10.30;99.90;;;;;;5047766;28;20044;-65
2022/02/24 12:12:26;;;;;;;10.15;1.52;;;10.30;99.90;;;;;;5058171;28;20063;-67
2022/02/24 12:14:57;;;;;;;4.38;1.23;;;10.40;99.90;;;;;;5057922;28;20049;-62
2022/02/24 12:17:24;;;;;;;;;;;10.30;99.90;;;;;;5065819;28;20041;-60
2022/02/24 12:19:59;;;;;;;3.75;1.15;;;10.30;99.90;;;;;;5065719;28;20304;-59
2022/02/24 12:22:43;;;;;;;5.85;1.27;;;10.30;99.90;;;;;;5046383;28;20053;-63
2022/02/24 12:25:14;;;;;;;3.60;1.20;;;10.30;99.90;;;;;;5045390;28;20049;-62
2022/02/24 12:27:47;;;;;;;2.67;1.00;;;10.20;99.90;;;;;;5066192;28;20044;-64
2022/02/24 12:30:20;;;;;;;8.38;1.48;;;10.10;99.90;;;;;;5049783;28;20044;-70
2022/02/24 12:33:05;;;;;;;8.77;1.70;;;10.10;99.90;;;;;;5048520;28;20044;-60
2022/02/24 12:35:34;;;;;;;8.48;1.55;;;10.00;99.90;;;;;;5034404;28;20040;-59
2022/02/24 12:38:01;;;;;;;5.63;1.58;;;9.90;99.90;;;;;;5055353;28;20371;-70
2022/02/24 12:40:39;;;;;;;7.32;1.52;;;9.90;99.90;;;;;;5074759;28;20135;-65
2022/02/24 12:43:10;;;;;;;5.55;1.70;;;9.90;99.90;;;;;;5049046;28;20147;-64
2022/02/24 12:45:38;;;;;;;10.05;1.60;;;9.80;99.90;;;;;;5040387;28;20123;-66
2022/02/24 12:48:06;;;;;;;5.65;1.38;;;9.70;99.90;;;;;;5048539;28;20053;-69
2022/02/24 12:50:39;;;;;;;4.53;1.00;;;9.60;99.90;;;;;;5044087;28;20067;-67
2022/02/24 12:53:11;;;;;;;5.35;0.75;;;9.50;99.90;;;;;;5048388;28;20406;-62
2022/02/24 12:55:45;;;;;;;21.17;2.08;;;9.40;99.90;;;;;;5047766;28;20067;-61
2022/02/24 12:58:16;;;;;;;7.53;1.27;;;9.20;99.90;;;;;;5031332;28;20055;-59